Time;durP1;ratioP1;P1;durP2;ratioP2;P2;SDS_P1;SDS_P2;PMS_P1;PMS_P2;Temp;Humidity;BMP_temperature;BMP_pressure;BME280_temperature;BME280_humidity;BME280_pressure;Samples;Min_cycle;Max_cycle;Signal;HPM_P1;HPM_P2
2022/02/04 00:23:58;;;;;;;34.75;23.52;;;;;;;-0.23;97.54;99663.64;1703581;84;21301;-78
2022/02/04 00:27:12;;;;;;;49.98;26.17;;;;;;;-0.26;97.47;99662.53;1703162;84;21351;-78
2022/02/04 00:30:24;;;;;;;37.65;24.87;;;;;;;-0.29;97.78;99666.80;1702478;84;21368;-79
2022/02/04 00:33:27;;;;;;;43.58;26.75;;;;;;;-0.33;97.78;99656.80;1703551;83;21376;-78
2022/02/04 00:40:10;;;;;;;43.68;27.02;;;;;;;-0.42;97.76;99669.62;1703725;84;21317;-78
2022/02/04 00:43:06;;;;;;;40.60;26.77;;;;;;;-0.46;97.93;99660.59;1703741;84;21319;-78
2022/02/04 00:46:15;;;;;;;41.68;26.17;;;;;;;-0.49;98.00;99661.67;1703108;84;21336;-79
2022/02/04 00:53:00;;;;;;;43.87;28.10;;;;;;;-0.56;98.63;99668.52;1676093;85;21339;-79
2022/02/04 00:56:10;;;;;;;41.75;27.13;;;;;;;-0.58;99.08;99663.74;1674779;85;21327;-80
2022/02/04 01:26:17;;;;;;;37.25;25.00;;;;;;;-0.87;98.50;99696.91;1733236;82;21776;-79
2022/02/04 01:29:22;;;;;;;43.95;27.70;;;;;;;-0.88;98.10;99688.00;1733772;82;21406;-79
2022/02/04 01:32:27;;;;;;;43.25;25.80;;;;;;;-0.88;98.32;99701.43;1733664;82;22651;-79
2022/02/04 01:35:33;;;;;;;39.80;24.65;;;;;;;-0.88;98.03;99692.03;1733842;82;21312;-79
2022/02/04 01:38:39;;;;;;;41.83;25.23;;;;;;;-0.90;97.38;99691.28;1733961;82;21839;-79
2022/02/04 01:41:44;;;;;;;47.78;27.98;;;;;;;-0.93;97.21;99699.59;1733719;82;21217;-78
2022/02/04 01:44:51;;;;;;;41.13;25.88;;;;;;;-0.93;97.20;99694.22;1733783;82;21450;-79
2022/02/04 01:47:57;;;;;;;35.13;23.77;;;;;;;-0.95;96.66;99701.52;1719051;82;21308;-80
2022/02/04 01:51:03;;;;;;;41.75;25.50;;;;;;;-0.96;96.82;99701.16;1704839;84;21320;-79
2022/02/04 01:54:08;;;;;;;40.20;25.62;;;;;;;-0.97;96.67;99708.00;1706156;84;21308;-79
2022/02/04 01:57:15;;;;;;;43.25;25.35;;;;;;;-1.01;96.64;99708.71;1705147;84;21233;-79
2022/02/04 02:00:21;;;;;;;40.75;25.30;;;;;;;-1.05;96.29;99708.57;1706004;84;22264;-79
2022/02/04 02:03:26;;;;;;;39.70;25.23;;;;;;;-1.06;96.23;99715.77;1705961;84;21780;-79
2022/02/04 02:06:59;;;;;;;41.70;25.32;;;;;;;-1.07;96.02;99706.50;1705666;84;21398;-79
2022/02/04 02:10:10;;;;;;;39.63;23.05;;;;;;;-1.07;95.49;99719.92;1703867;84;21351;-80
2022/02/04 02:13:23;;;;;;;41.40;24.20;;;;;;;-1.06;95.51;99712.23;1703633;84;21332;-80
2022/02/04 02:17:00;;;;;;;40.08;23.98;;;;;;;-1.09;95.05;99713.80;1702784;84;21930;-80
2022/02/04 02:33:39;;;;;;;36.70;22.45;;;;;;;-1.11;95.16;99705.02;1712284;83;21311;-79
2022/02/04 02:46:39;;;;;;;39.92;23.65;;;;;;;-1.15;95.44;99716.47;1718036;83;21393;-79
2022/02/04 02:56:19;;;;;;;39.40;23.90;;;;;;;-1.16;96.19;99711.23;1718433;83;21358;-80
2022/02/04 02:59:06;;;;;;;34.45;22.73;;;;;;;-1.13;96.06;99717.69;1718476;83;21299;-80
2022/02/04 03:02:07;;;;;;;;;;;;;;;-1.14;95.65;99714.64;1727331;81;21363;-79
2022/02/04 03:05:11;;;;;;;42.38;22.62;;;;;;;-1.15;95.23;99720.98;1771273;81;20604;-80
2022/02/04 03:08:17;;;;;;;40.17;21.85;;;;;;;-1.18;95.03;99725.23;1692419;82;21873;-79
2022/02/04 03:11:23;;;;;;;39.70;21.75;;;;;;;-1.20;95.11;99727.19;1672906;85;21370;-80
2022/02/04 03:14:28;;;;;;;39.90;23.32;;;;;;;-1.22;94.99;99729.11;1671878;85;21863;-79
2022/02/04 03:17:35;;;;;;;39.65;22.10;;;;;;;-1.24;94.86;99729.23;1681780;83;21920;-80
2022/02/04 03:20:48;;;;;;;37.28;22.55;;;;;;;-1.23;94.56;99723.39;1707344;84;21205;-79
2022/02/04 03:23:56;;;;;;;36.68;22.52;;;;;;;-1.24;94.77;99718.51;1707386;84;21134;-79
2022/02/04 03:27:05;;;;;;;37.20;23.73;;;;;;;-1.24;94.54;99718.51;1702200;84;21366;-79
2022/02/04 03:30:19;;;;;;;37.67;21.43;;;;;;;-1.27;94.04;99732.63;1701789;83;21815;-79
2022/02/04 03:33:25;;;;;;;37.03;23.42;;;;;;;-1.30;93.97;99735.94;1701246;82;21269;-79
2022/02/04 03:36:30;;;;;;;35.03;21.30;;;;;;;-1.35;93.68;99726.03;1702748;84;21181;-78
2022/02/04 03:39:36;;;;;;;40.03;22.52;;;;;;;-1.34;93.91;99730.91;1701233;84;21335;-79
2022/02/04 03:42:41;;;;;;;36.20;21.93;;;;;;;-1.33;94.41;99742.00;1702632;84;21371;-79
2022/02/04 03:45:47;;;;;;;42.23;23.30;;;;;;;-1.32;94.67;99731.18;1702911;84;21201;-79
2022/02/04 03:48:55;;;;;;;37.93;22.75;;;;;;;-1.30;94.55;99740.45;1701597;84;21384;-79
2022/02/04 03:52:00;;;;;;;36.38;21.23;;;;;;;-1.30;94.59;99748.50;1701062;84;21264;-79
2022/02/04 03:55:07;;;;;;;40.20;24.43;;;;;;;-1.31;94.26;99735.56;1704091;82;21311;-79
2022/02/04 03:58:13;;;;;;;41.13;22.98;;;;;;;-1.33;94.50;99742.86;1732900;83;21519;-79
2022/02/04 04:01:19;;;;;;;38.55;22.60;;;;;;;-1.30;94.73;99743.98;1732673;83;21174;-79
2022/02/04 04:04:30;;;;;;;38.45;22.82;;;;;;;-1.27;94.75;99744.70;1700152;84;21372;-79
2022/02/04 04:07:31;;;;;;;36.85;21.90;;;;;;;-1.23;94.46;99744.86;1727938;83;21222;-80
2022/02/04 04:10:41;;;;;;;39.60;22.58;;;;;;;-1.24;94.42;99742.66;1733078;82;21846;-79
2022/02/04 04:13:45;;;;;;;;;;;;;;;-1.25;94.29;99744.98;1746022;82;21299;-79
2022/02/04 04:16:52;;;;;;;35.65;21.27;;;;;;;-1.24;94.13;99739.98;1744544;81;20290;-80
2022/02/04 04:19:58;;;;;;;37.50;21.65;;;;;;;-1.24;94.00;99743.15;1740880;82;21189;-79
2022/02/04 04:23:04;;;;;;;41.50;21.55;;;;;;;-1.25;93.98;99752.17;1735451;82;21303;-79
2022/02/04 04:26:10;;;;;;;40.70;23.22;;;;;;;-1.22;94.06;99757.30;1720401;82;21327;-79
2022/02/04 04:29:16;;;;;;;37.65;23.05;;;;;;;-1.20;93.92;99750.00;1704249;84;21410;-80
2022/02/04 04:32:22;;;;;;;35.10;21.87;;;;;;;-1.22;94.16;99759.52;1708771;83;21944;-80
2022/02/04 04:35:28;;;;;;;37.35;21.57;;;;;;;-1.23;94.94;99759.61;1720207;82;21323;-80
2022/02/04 04:38:39;;;;;;;38.60;22.10;;;;;;;-1.25;95.42;99758.39;1734168;82;21154;-79
2022/02/04 04:41:54;;;;;;;34.75;20.43;;;;;;;-1.30;95.10;99761.91;1734264;82;21375;-79
2022/02/04 05:31:58;;;;;;;30.92;20.37;;;;;;;-1.79;95.08;99799.02;1744894;81;21308;-80
2022/02/04 05:35:07;;;;;;;34.95;20.55;;;;;;;-1.80;95.20;99800.84;1763617;81;21394;-79
2022/02/04 05:38:13;;;;;;;37.42;20.72;;;;;;;-1.79;95.00;99793.66;1796561;80;21173;-80
2022/02/04 05:41:24;;;;;;;33.35;20.45;;;;;;;-1.81;95.12;99799.62;1774243;81;21350;-80
2022/02/04 05:44:26;;;;;;;34.92;20.95;;;;;;;-1.78;95.60;99793.20;1765099;81;21291;-79
2022/02/04 05:47:33;;;;;;;35.40;21.12;;;;;;;-1.74;95.31;99783.94;1787237;80;21176;-80
2022/02/04 05:50:50;;;;;;;34.35;20.52;;;;;;;-1.75;95.02;99791.12;1763733;81;21381;-80
2022/02/04 05:57:13;;;;;;;33.50;18.45;;;;;;;-1.81;94.32;99812.54;1747760;82;21291;-79
2022/02/04 06:00:27;;;;;;;32.65;19.65;;;;;;;-1.81;94.22;99795.11;1737045;80;21830;-80
2022/02/04 06:22:57;;;;;;;30.32;18.23;;;;;;;-1.78;93.93;99812.81;1727885;82;21312;-79
2022/02/04 06:26:02;;;;;;;35.43;18.77;;;;;;;-1.83;93.32;99799.74;1734551;82;21253;-79
2022/02/04 06:29:07;;;;;;;30.30;18.98;;;;;;;-1.85;93.78;99804.34;1736181;81;21574;-80
2022/02/04 06:32:16;;;;;;;37.88;19.87;;;;;;;-1.87;93.74;99794.22;1734742;82;21166;-80
2022/02/04 06:35:22;;;;;;;30.97;18.57;;;;;;;-1.87;93.94;99806.28;1737215;82;21169;-79
2022/02/04 06:38:29;;;;;;;30.50;19.82;;;;;;;-1.87;93.85;99807.62;1715980;82;22748;-78
2022/02/04 06:41:34;;;;;;;38.60;20.72;;;;;;;-1.87;93.74;99808.11;1736384;82;21291;-79
2022/02/04 06:44:39;;;;;;;32.85;19.10;;;;;;;-1.86;94.42;99809.34;1732227;82;21182;-80
2022/02/04 06:47:46;;;;;;;30.48;18.10;;;;;;;-1.86;94.46;99812.02;1760277;81;21168;-80
2022/02/04 06:50:52;;;;;;;32.78;19.35;;;;;;;-1.87;94.25;99806.28;1756385;81;21350;-79
2022/02/04 06:53:57;;;;;;;30.90;18.87;;;;;;;-1.91;94.06;99803.45;1733153;82;21176;-80
2022/02/04 06:57:02;;;;;;;40.30;20.12;;;;;;;-1.95;93.94;99800.61;1752433;81;21297;-79
2022/02/04 07:00:08;;;;;;;32.80;20.17;;;;;;;-1.95;94.03;99801.09;1732921;82;21753;-80
2022/02/04 07:03:14;;;;;;;31.75;19.80;;;;;;;-1.97;94.30;99816.44;1745588;81;21283;-80
2022/02/04 07:06:20;;;;;;;31.60;19.75;;;;;;;-1.98;94.09;99812.88;1754370;80;21298;-79
2022/02/04 07:09:44;;;;;;;30.57;17.95;;;;;;;-1.96;94.25;99806.09;1738914;82;21221;-79
2022/02/04 07:12:35;;;;;;;32.40;19.95;;;;;;;-1.95;94.15;99807.31;1744120;80;21771;-79
2022/02/04 07:22:14;;;;;;;29.50;19.10;;;;;;;-1.90;93.16;99806.49;1724513;81;21413;-79
2022/02/04 07:25:20;;;;;;;33.95;20.45;;;;;;;-1.88;92.85;99811.77;1727850;81;21294;-80
2022/02/04 07:28:26;;;;;;;34.40;20.23;;;;;;;-1.85;92.99;99815.55;1723719;82;21502;-80
2022/02/04 07:31:35;;;;;;;30.50;20.00;;;;;;;-1.81;92.56;99809.86;1740808;81;21941;-80
2022/02/04 07:41:26;;;;;;;31.73;18.73;;;;;;;-1.82;92.35;99820.22;1728918;81;21189;-79
2022/02/04 07:44:32;;;;;;;29.12;17.75;;;;;;;-1.85;92.64;99824.45;1730376;81;21341;-79
2022/02/04 07:47:40;;;;;;;27.40;17.32;;;;;;;-1.88;92.70;99819.81;1721237;81;21942;-80
2022/02/04 07:50:47;;;;;;;28.38;19.02;;;;;;;-1.90;92.50;99811.86;1688653;81;21359;-80
2022/02/04 07:54:02;;;;;;;28.85;17.35;;;;;;;-1.91;92.48;99813.31;1700362;82;21273;-80
2022/02/04 07:57:14;;;;;;;26.52;17.90;;;;;;;-1.96;92.36;99821.69;1730064;81;22355;-80
2022/02/04 08:00:22;;;;;;;30.65;19.48;;;;;;;-1.95;92.67;99823.39;1691439;82;21340;-80
2022/02/04 08:03:45;;;;;;;28.98;17.35;;;;;;;-1.95;92.37;99818.03;1718402;81;21258;-80
2022/02/04 08:06:53;;;;;;;25.57;16.82;;;;;;;-1.96;92.50;99824.36;1711574;82;21868;-79
2022/02/04 08:29:47;;;;;;;27.42;17.37;;;;;;;-1.93;92.24;99827.30;1720083;82;21174;-80
2022/02/04 08:36:21;;;;;;;28.32;17.25;;;;;;;-1.90;92.74;99827.94;1724337;82;21204;-79
2022/02/04 08:52:45;;;;;;;29.42;16.80;;;;;;;-1.85;91.89;99825.78;1718218;82;21847;-80
2022/02/04 08:55:53;;;;;;;29.20;17.55;;;;;;;-1.84;91.83;99822.62;1726360;82;21375;-79
2022/02/04 08:59:00;;;;;;;31.70;17.27;;;;;;;-1.88;91.32;99820.66;1732541;82;21755;-80
2022/02/04 09:05:15;;;;;;;29.05;16.65;;;;;;;-1.83;91.16;99822.53;1725763;82;21340;-80
2022/02/04 09:08:29;;;;;;;26.45;16.90;;;;;;;-1.81;91.04;99815.70;1722796;82;21231;-80
2022/02/04 09:11:41;;;;;;;28.15;16.45;;;;;;;-1.80;91.13;99820.95;1714062;82;21312;-80
2022/02/04 09:21:51;;;;;;;23.55;15.80;;;;;;;-1.72;90.45;99805.66;1754061;80;21275;-80
2022/02/04 09:24:44;;;;;;;28.47;16.77;;;;;;;-1.70;89.53;99801.03;1743760;80;21330;-80
2022/02/04 09:27:50;;;;;;;27.30;17.30;;;;;;;-1.71;89.30;99800.67;1735695;80;21729;-80
2022/02/04 09:30:55;;;;;;;28.98;17.32;;;;;;;-1.72;88.69;99798.11;1729962;82;21338;-80
2022/02/04 09:34:00;;;;;;;27.55;16.45;;;;;;;-1.76;88.27;99804.66;1746877;82;21334;-80
2022/02/04 09:37:07;;;;;;;25.23;15.85;;;;;;;-1.78;88.42;99801.23;1750543;82;21189;-80
2022/02/04 09:40:14;;;;;;;27.10;17.48;;;;;;;-1.78;88.79;99802.58;1751727;82;21296;-80
2022/02/04 09:43:23;;;;;;;30.40;17.62;;;;;;;-1.77;88.68;99802.95;1748516;80;21189;-79
2022/02/04 09:46:33;;;;;;;27.85;16.65;;;;;;;-1.78;88.45;99808.80;1746701;82;21953;-80
2022/02/04 09:49:40;;;;;;;30.05;18.52;;;;;;;-1.80;88.94;99806.20;1747403;82;21307;-79
2022/02/04 10:16:36;;;;;;;35.45;21.15;;;;;;;-1.90;88.05;99803.81;1736793;80;21292;-80
2022/02/04 10:19:37;;;;;;;37.70;21.55;;;;;;;-1.89;88.50;99792.61;1728195;81;21182;-80
2022/02/04 10:22:37;;;;;;;48.20;26.70;;;;;;;-1.81;88.68;99787.55;1724405;82;21243;-80
2022/02/04 10:25:46;;;;;;;59.15;29.37;;;;;;;-1.80;87.87;99788.77;1725922;82;21260;-80
2022/02/04 10:28:51;;;;;;;56.40;28.87;;;;;;;-1.82;88.08;99777.32;1708489;81;21867;-80
2022/02/04 10:31:57;;;;;;;69.20;33.15;;;;;;;-1.80;88.13;99779.39;1721181;82;21807;-79
2022/02/04 10:35:16;;;;;;;80.20;38.33;;;;;;;-1.82;88.00;99778.66;1691347;82;22155;-80
2022/02/04 10:38:26;;;;;;;66.02;32.88;;;;;;;-1.78;87.73;99785.16;1712550;82;21305;-80
2022/02/04 10:41:39;;;;;;;54.42;27.62;;;;;;;-1.78;87.64;99779.79;1726784;81;21304;-80
2022/02/04 10:44:51;;;;;;;47.15;26.23;;;;;;;-1.74;87.83;99791.52;1722604;81;21330;-80
2022/02/04 10:48:17;;;;;;;44.85;24.45;;;;;;;-1.73;87.79;99779.83;1728316;81;21348;-81
2022/02/04 10:51:42;;;;;;;52.55;26.42;;;;;;;-1.71;87.75;99790.42;1724542;82;21324;-81
2022/02/04 11:01:57;;;;;;;61.00;28.75;;;;;;;-1.70;87.34;99790.30;1692144;84;21347;-79
2022/02/04 11:05:05;;;;;;;53.42;27.87;;;;;;;-1.73;87.31;99781.65;1692071;83;21316;-80
2022/02/04 11:12:01;;;;;;;44.67;25.43;;;;;;;-1.77;87.45;99781.01;1719581;81;21308;-79
2022/02/04 11:31:52;;;;;;;47.48;26.33;;;;;;;-1.91;87.47;99788.70;1733561;82;21354;-80
2022/02/04 11:35:10;;;;;;;43.23;24.18;;;;;;;-1.89;87.49;99792.12;1751780;80;21874;-79
2022/02/04 11:48:36;;;;;;;32.63;18.30;;;;;;;-1.76;86.61;99799.30;1740619;80;21205;-80
2022/02/04 11:51:50;;;;;;;34.27;19.12;;;;;;;-1.82;86.40;99784.51;1717737;82;21311;-79
2022/02/04 11:54:54;;;;;;;28.00;18.57;;;;;;;-1.88;86.27;99797.02;1741664;80;21382;-79
2022/02/04 11:58:04;;;;;;;32.93;21.20;;;;;;;-1.86;86.78;99786.55;1726405;81;21298;-78
2022/02/04 12:01:12;;;;;;;30.27;18.75;;;;;;;-1.82;86.45;99801.45;1777708;79;21607;-79
2022/02/04 12:04:27;;;;;;;38.17;21.93;;;;;;;-1.81;86.22;99781.70;1743247;80;21296;-79
2022/02/04 12:07:55;;;;;;;34.05;21.35;;;;;;;-1.81;86.15;99799.14;1731271;80;21912;-79
2022/02/04 12:11:03;;;;;;;33.55;19.67;;;;;;;-1.77;86.39;99810.99;1717692;82;21279;-79
2022/02/04 12:14:17;;;;;;;32.17;20.57;;;;;;;-1.72;86.57;99810.17;1739891;80;21166;-79
2022/02/04 12:17:23;;;;;;;34.60;19.32;;;;;;;-1.70;86.12;99802.86;1739510;81;21221;-79
2022/02/04 12:20:59;;;;;;;35.60;21.42;;;;;;;-1.70;85.84;99817.13;1740996;82;21828;-79
2022/02/04 12:24:05;;;;;;;33.42;19.23;;;;;;;-1.66;86.11;99811.91;1727076;82;21202;-80
2022/02/04 12:27:45;;;;;;;39.60;21.25;;;;;;;-1.63;86.13;99809.52;1711509;83;21238;-79
2022/02/04 12:30:47;;;;;;;33.33;18.55;;;;;;;-1.62;86.13;99812.56;1733448;81;21311;-80
2022/02/04 12:34:14;;;;;;;27.58;18.35;;;;;;;-1.63;85.70;99809.02;1741954;82;21335;-80
2022/02/04 12:37:21;;;;;;;35.28;20.52;;;;;;;-1.62;85.84;99808.53;1742749;82;21887;-80
2022/02/04 12:40:28;;;;;;;28.73;18.27;;;;;;;-1.61;85.97;99818.29;1718250;80;21305;-79
2022/02/04 12:43:33;;;;;;;30.65;17.82;;;;;;;-1.61;85.62;99819.63;1727197;82;21250;-79
2022/02/04 12:46:38;;;;;;;28.83;18.35;;;;;;;-1.62;85.38;99813.41;1719020;83;21328;-79
2022/02/04 12:50:02;;;;;;;27.80;18.77;;;;;;;-1.60;85.65;99825.36;1720295;83;21386;-79
2022/02/04 12:53:08;;;;;;;28.70;17.70;;;;;;;-1.59;85.58;99825.76;1719574;83;21333;-79
2022/02/04 13:09:49;;;;;;;32.20;18.27;;;;;;;-1.67;85.64;99832.15;1733646;82;21322;-80
2022/02/04 13:12:29;;;;;;;21.75;15.18;;;;;;;-1.67;85.80;99834.83;1733105;82;21286;-80
2022/02/04 13:15:35;;;;;;;22.62;15.15;;;;;;;-1.73;85.23;99839.30;1733056;80;21314;-79
2022/02/04 13:18:41;;;;;;;21.95;15.38;;;;;;;-1.81;85.46;99839.35;1732583;82;21220;-80
2022/02/04 13:21:47;;;;;;;22.82;15.83;;;;;;;-1.90;86.32;99831.96;1728954;82;21782;-79
2022/02/04 13:24:53;;;;;;;23.45;15.32;;;;;;;-1.86;87.06;99840.16;1744150;82;21331;-80
2022/02/04 13:28:16;;;;;;;23.83;15.20;;;;;;;-1.82;86.88;99829.60;1745486;82;21869;-80
2022/02/04 13:31:24;;;;;;;21.95;14.13;;;;;;;-1.81;86.37;99841.18;1716755;83;21347;-79
2022/02/04 13:34:35;;;;;;;20.30;14.07;;;;;;;-1.87;86.17;99849.18;1704921;83;21866;-79
2022/02/04 13:37:42;;;;;;;21.75;15.63;;;;;;;-1.91;86.32;99853.52;1704512;83;21800;-79
2022/02/04 13:41:23;;;;;;;24.67;15.83;;;;;;;-1.93;86.57;99850.08;1718376;83;21301;-80
2022/02/04 13:47:52;;;;;;;21.60;13.13;;;;;;;-2.01;86.52;99842.59;1781131;80;21233;-79
2022/02/04 13:51:15;;;;;;;21.90;14.70;;;;;;;-2.09;86.18;99848.97;1782438;80;21244;-79
2022/02/04 13:57:56;;;;;;;20.17;12.73;;;;;;;-2.17;86.36;99849.98;1719321;83;21335;-79
2022/02/04 14:01:15;;;;;;;;;;;;;;;-2.21;86.84;99864.55;1731829;82;21180;-79
2022/02/04 14:04:12;;;;;;;23.45;12.40;;;;;;;-2.26;86.45;99862.19;1750565;82;20231;-79
2022/02/04 14:07:20;;;;;;;20.48;12.78;;;;;;;-2.30;86.13;99854.02;1742415;82;21326;-79
2022/02/04 14:10:35;;;;;;;17.98;12.70;;;;;;;-2.32;86.30;99856.77;1743574;82;21629;-79
2022/02/04 14:13:40;;;;;;;19.73;13.30;;;;;;;-2.33;86.24;99860.42;1743540;82;21830;-79
2022/02/04 14:16:47;;;;;;;18.92;13.32;;;;;;;-2.32;85.88;99868.83;1742397;82;21536;-78
2022/02/04 14:19:52;;;;;;;19.62;13.88;;;;;;;-2.33;85.51;99873.81;1741088;81;21922;-78
2022/02/04 14:22:58;;;;;;;22.60;13.60;;;;;;;-2.35;85.68;99879.77;1730522;83;21319;-78
2022/02/04 14:26:17;;;;;;;21.42;13.15;;;;;;;-2.34;85.24;99880.63;1728881;83;21814;-78
2022/02/04 14:29:25;;;;;;;20.80;12.45;;;;;;;-2.33;85.41;99883.19;1728892;83;21331;-78
2022/02/04 14:32:36;;;;;;;19.67;12.07;;;;;;;-2.30;84.84;99887.98;1730542;83;21165;-78
2022/02/04 14:35:54;;;;;;;18.40;12.18;;;;;;;-2.31;83.95;99895.13;1729088;83;21172;-78
2022/02/04 15:02:13;;;;;;;22.35;13.03;;;;;;;-2.55;84.17;99919.08;1730585;83;21209;-79
2022/02/04 15:05:22;;;;;;;23.25;15.05;;;;;;;-2.55;84.26;99923.58;1730666;83;21346;-79
2022/02/04 15:08:28;;;;;;;22.62;13.83;;;;;;;-2.57;84.08;99918.34;1728724;83;21303;-78
2022/02/04 15:11:35;;;;;;;23.70;14.53;;;;;;;-2.58;84.41;99921.98;1730777;83;21251;-79
2022/02/04 15:14:40;;;;;;;23.65;15.03;;;;;;;-2.59;84.68;99928.28;1729326;82;21228;-79
2022/02/04 15:17:47;;;;;;;21.30;14.30;;;;;;;-2.59;84.46;99929.62;1730032;83;21343;-79
2022/02/04 15:20:58;;;;;;;22.22;15.88;;;;;;;-2.60;84.55;99932.78;1733628;82;21220;-78
2022/02/04 15:24:00;;;;;;;23.62;14.75;;;;;;;-2.60;84.55;99942.15;1751523;82;21773;-78
2022/02/04 15:27:06;;;;;;;23.80;14.15;;;;;;;-2.59;84.83;99945.69;1750939;82;21314;-78
2022/02/04 15:30:11;;;;;;;20.62;13.95;;;;;;;-2.61;84.53;99951.63;1731365;81;21631;-78
2022/02/04 15:33:17;;;;;;;19.27;12.40;;;;;;;-2.65;84.47;99964.84;1733966;82;21322;-79
2022/02/04 15:36:29;;;;;;;23.92;14.10;;;;;;;-2.69;84.52;99953.95;1706095;84;21828;-79
2022/02/04 15:39:34;;;;;;;22.60;14.25;;;;;;;-2.69;84.93;99957.97;1705796;84;21312;-79
2022/02/04 15:42:44;;;;;;;24.23;13.60;;;;;;;-2.69;85.34;99972.69;1734308;82;21286;-79
2022/02/04 15:58:34;;;;;;;23.10;15.78;;;;;;;-2.65;84.71;99986.27;1734458;82;21390;-79
2022/02/04 16:01:49;;;;;;;24.37;15.13;;;;;;;-2.67;84.62;99985.52;1735386;82;21313;-79
2022/02/04 16:04:43;;;;;;;21.20;13.93;;;;;;;-2.67;84.69;99988.20;1735457;82;21483;-79
2022/02/04 16:07:46;;;;;;;22.22;14.03;;;;;;;-2.68;84.79;99997.16;1735401;82;21705;-79
2022/02/04 16:11:07;;;;;;;21.20;13.93;;;;;;;-2.71;84.34;99999.58;1736167;82;21328;-78
2022/02/04 16:14:15;;;;;;;19.07;12.68;;;;;;;-2.71;84.74;100000.06;1734274;82;21324;-79
2022/02/04 16:17:28;;;;;;;20.88;14.58;;;;;;;-2.72;84.83;100004.56;1734754;82;21312;-78
2022/02/04 16:24:14;;;;;;;23.60;13.32;;;;;;;-2.73;85.05;100009.55;1735937;82;21885;-78
2022/02/04 16:30:26;;;;;;;20.12;13.30;;;;;;;-2.78;84.95;100018.80;1736582;82;21399;-79
2022/02/04 16:33:32;;;;;;;20.45;12.40;;;;;;;-2.80;84.93;100020.73;1737959;82;21300;-79
2022/02/04 16:36:41;;;;;;;22.82;13.83;;;;;;;-2.81;85.19;100015.00;1737773;82;21205;-79
2022/02/04 16:39:47;;;;;;;22.65;12.40;;;;;;;-2.83;84.79;100028.47;1736728;82;21367;-79
2022/02/04 16:42:52;;;;;;;20.65;13.55;;;;;;;-2.85;84.56;100025.90;1738867;82;21625;-79
2022/02/04 16:45:57;;;;;;;19.60;13.25;;;;;;;-2.87;84.56;100018.45;1736632;82;21666;-79
2022/02/04 16:49:03;;;;;;;20.17;12.63;;;;;;;-2.89;84.70;100028.86;1711942;82;21536;-78
2022/02/04 16:52:08;;;;;;;19.42;12.93;;;;;;;-2.89;84.92;100032.40;1707504;84;21313;-78
2022/02/04 16:55:13;;;;;;;20.27;12.88;;;;;;;-2.89;85.03;100036.41;1706099;84;21376;-78
2022/02/04 16:58:19;;;;;;;18.37;12.30;;;;;;;-2.91;84.69;100035.67;1707496;82;21327;-78
2022/02/04 17:01:25;;;;;;;20.37;13.32;;;;;;;-2.92;84.60;100041.95;1707457;84;21201;-79
2022/02/04 17:04:31;;;;;;;19.20;12.98;;;;;;;-2.92;84.95;100042.43;1706261;84;21253;-79
2022/02/04 17:07:38;;;;;;;20.32;12.73;;;;;;;-2.93;84.61;100036.70;1706231;84;21846;-79
2022/02/04 17:10:49;;;;;;;18.27;12.58;;;;;;;-2.94;84.42;100033.66;1707492;84;21760;-79
2022/02/04 17:13:55;;;;;;;18.55;12.70;;;;;;;-2.98;84.49;100047.70;1726860;82;21708;-79
2022/02/04 17:17:01;;;;;;;19.77;12.30;;;;;;;-3.02;84.43;100042.64;1707578;84;21291;-79
2022/02/04 17:20:11;;;;;;;18.48;12.75;;;;;;;-3.04;84.84;100045.91;1698850;84;21339;-79
2022/02/04 17:23:26;;;;;;;20.45;13.35;;;;;;;-3.10;85.09;100045.33;1707533;84;21324;-79
2022/02/04 17:26:24;;;;;;;19.23;12.80;;;;;;;-3.11;85.11;100037.38;1708297;84;21911;-79
2022/02/04 17:29:30;;;;;;;20.15;12.53;;;;;;;-3.12;85.24;100051.72;1707822;82;21413;-79
2022/02/04 17:32:34;;;;;;;18.62;12.90;;;;;;;-3.16;85.33;100052.39;1671886;86;21586;-79
2022/02/04 17:35:39;;;;;;;19.17;13.00;;;;;;;-3.18;85.39;100044.95;1672194;86;21338;-79
2022/02/04 17:38:45;;;;;;;20.15;13.95;;;;;;;-3.19;85.63;100053.08;1671984;86;21299;-78
2022/02/04 17:41:55;;;;;;;23.07;13.83;;;;;;;-3.16;85.75;100060.89;1671941;86;21826;-79
2022/02/04 17:45:01;;;;;;;20.45;13.90;;;;;;;-3.16;85.48;100057.73;1670985;86;21831;-79
2022/02/04 17:48:09;;;;;;;24.15;13.90;;;;;;;-3.15;85.42;100058.63;1688137;85;21338;-79
2022/02/04 17:51:30;;;;;;;24.23;14.15;;;;;;;-3.13;85.48;100064.73;1688237;85;21307;-79
2022/02/04 17:54:35;;;;;;;21.77;13.80;;;;;;;-3.09;85.38;100067.59;1688068;85;21256;-79
2022/02/04 17:57:38;;;;;;;20.43;13.78;;;;;;;-3.07;85.26;100063.00;1689087;85;21275;-79
2022/02/04 18:01:14;;;;;;;21.52;13.32;;;;;;;-3.04;85.09;100063.30;1677456;85;21236;-79
2022/02/04 18:07:30;;;;;;;19.35;12.82;;;;;;;-3.00;85.06;100063.01;1673616;85;21330;-78
2022/02/04 18:10:35;;;;;;;19.25;12.73;;;;;;;-2.98;84.89;100067.77;1672976;85;21323;-78
2022/02/04 18:13:41;;;;;;;19.80;12.73;;;;;;;-2.96;84.83;100064.54;1673404;85;21902;-79
2022/02/04 18:16:47;;;;;;;19.27;12.47;;;;;;;-2.95;84.88;100066.25;1672740;85;21993;-79
2022/02/04 18:19:52;;;;;;;20.08;12.05;;;;;;;-2.96;84.41;100061.01;1673252;85;21921;-78
2022/02/04 18:22:59;;;;;;;18.10;13.13;;;;;;;-3.01;84.13;100060.41;1673540;85;21200;-78
2022/02/04 18:26:04;;;;;;;19.12;11.73;;;;;;;-3.03;84.33;100067.69;1724714;83;21392;-79
2022/02/04 18:29:12;;;;;;;18.92;12.53;;;;;;;-3.03;84.37;100077.05;1733216;80;21136;-79
2022/02/04 18:32:19;;;;;;;17.20;11.78;;;;;;;-3.02;84.50;100070.26;1782144;80;21236;-79
2022/02/04 18:35:26;;;;;;;16.42;11.97;;;;;;;-2.99;84.47;100070.08;1780893;80;21350;-79
2022/02/04 18:38:37;;;;;;;21.00;11.20;;;;;;;-2.98;84.17;100067.77;1755732;80;21291;-79
2022/02/04 18:42:06;;;;;;;17.30;11.18;;;;;;;-3.00;83.82;100067.02;1781054;80;21866;-78
2022/02/04 18:44:58;;;;;;;18.32;11.78;;;;;;;-2.99;83.86;100068.73;1753105;80;21358;-79
2022/02/04 18:48:06;;;;;;;18.92;11.95;;;;;;;-2.99;83.83;100070.55;1712421;83;21196;-79
2022/02/04 18:51:26;;;;;;;18.73;11.20;;;;;;;-3.00;83.90;100067.02;1712603;83;21306;-79
2022/02/04 18:57:30;;;;;;;17.27;11.30;;;;;;;-2.98;83.87;100069.11;1713878;83;21714;-79
2022/02/04 19:00:36;;;;;;;17.92;11.03;;;;;;;-2.95;83.68;100073.42;1727183;81;21224;-79
2022/02/04 19:03:46;;;;;;;19.40;12.33;;;;;;;-2.92;83.50;100079.91;1732544;82;21847;-78
2022/02/04 19:06:59;;;;;;;17.70;12.05;;;;;;;-2.89;83.71;100079.72;1733604;82;21846;-79
2022/02/04 19:09:58;;;;;;;17.82;11.48;;;;;;;-2.85;83.42;100086.12;1738086;82;21342;-79
2022/02/04 19:13:13;;;;;;;19.92;11.97;;;;;;;-2.81;83.11;100080.59;1713071;82;21219;-78
2022/02/04 19:16:35;;;;;;;18.42;11.57;;;;;;;-2.81;82.77;100078.77;1770305;81;21168;-79
2022/02/04 19:19:48;;;;;;;19.55;12.37;;;;;;;-2.80;81.71;100083.64;1774166;81;21342;-79
2022/02/04 19:22:52;;;;;;;21.02;13.43;;;;;;;-2.80;81.27;100085.84;1774199;81;21299;-79
2022/02/04 19:25:54;;;;;;;21.27;12.88;;;;;;;-2.80;80.93;100095.20;1746144;81;22506;-79
2022/02/04 19:28:59;;;;;;;19.25;12.85;;;;;;;-2.77;80.54;100091.48;1748646;82;21205;-79
2022/02/04 19:32:05;;;;;;;23.42;13.15;;;;;;;-2.75;79.94;100089.56;1732937;82;21205;-80
2022/02/04 19:35:12;;;;;;;19.62;12.95;;;;;;;-2.71;79.78;100092.43;1714920;83;21354;-80
2022/02/04 19:38:37;;;;;;;25.08;14.40;;;;;;;-2.70;79.80;100081.61;1713248;83;21369;-80
2022/02/04 19:41:49;;;;;;;21.40;12.53;;;;;;;-2.66;80.14;100086.30;1712484;83;21410;-78
2022/02/04 19:44:57;;;;;;;23.15;11.85;;;;;;;-2.60;80.28;100088.09;1719507;82;21834;-80
2022/02/04 19:48:08;;;;;;;20.02;11.95;;;;;;;-2.55;80.30;100086.46;1768769;81;21908;-79
2022/02/04 19:51:23;;;;;;;21.17;12.15;;;;;;;-2.49;80.25;100093.23;1745155;82;21354;-79
2022/02/04 20:24:46;;;;;;;14.68;9.73;;;;;;;-2.50;79.33;100091.04;1712791;83;21898;-78
2022/02/04 20:27:48;;;;;;;16.17;9.90;;;;;;;-2.52;79.49;100090.77;1712283;81;21341;-78
2022/02/04 20:30:54;;;;;;;16.30;10.55;;;;;;;-2.57;79.58;100089.73;1721333;80;21766;-79
2022/02/04 20:33:59;;;;;;;15.93;10.28;;;;;;;-2.61;80.14;100081.51;1714571;82;21199;-79
2022/02/04 20:37:04;;;;;;;15.32;10.38;;;;;;;-2.62;80.36;100081.13;1741902;82;21838;-80
2022/02/04 20:43:18;;;;;;;17.80;10.38;;;;;;;-2.61;80.96;100089.54;1740765;82;21603;-79
2022/02/04 20:46:23;;;;;;;18.57;12.23;;;;;;;-2.65;81.18;100087.53;1715085;82;21289;-79